sensor_id;sensor_type;location;lat;lon;timestamp;P1;P2;P0
72307;PMS5003;60257;42.638;23.376;2022-08-02T00:00:47;7.75;7.00;5.00
72307;PMS5003;60257;42.638;23.376;2022-08-02T00:03:13;5.25;5.25;3.75
72307;PMS5003;60257;42.638;23.376;2022-08-02T00:05:38;5.00;5.00;4.25
72307;PMS5003;60257;42.638;23.376;2022-08-02T00:08:03;7.00;7.00;4.00
72307;PMS5003;60257;42.638;23.376;2022-08-02T00:10:29;7.75;6.50;4.75
72307;PMS5003;60257;42.638;23.376;2022-08-02T00:12:55;9.50;9.00;6.00
72307;PMS5003;60257;42.638;23.376;2022-08-02T00:15:20;5.00;5.00;4.00
72307;PMS5003;60257;42.638;23.376;2022-08-02T00:17:48;9.00;6.00;5.00
72307;PMS5003;60257;42.638;23.376;2022-08-02T00:20:14;8.25;8.25;5.50
72307;PMS5003;60257;42.638;23.376;2022-08-02T00:22:40;9.75;9.75;7.00
72307;PMS5003;60257;42.638;23.376;2022-08-02T00:25:05;8.00;7.00;4.75
72307;PMS5003;60257;42.638;23.376;2022-08-02T00:27:31;7.00;7.00;5.00
72307;PMS5003;60257;42.638;23.376;2022-08-02T00:29:57;5.75;5.25;3.75
72307;PMS5003;60257;42.638;23.376;2022-08-02T00:32:22;7.50;7.00;5.25
72307;PMS5003;60257;42.638;23.376;2022-08-02T00:34:48;6.25;6.25;3.50
72307;PMS5003;60257;42.638;23.376;2022-08-02T00:37:14;7.25;5.75;4.00
72307;PMS5003;60257;42.638;23.376;2022-08-02T00:39:40;7.00;7.00;4.50
72307;PMS5003;60257;42.638;23.376;2022-08-02T00:42:06;7.25;6.50;5.00
72307;PMS5003;60257;42.638;23.376;2022-08-02T00:44:32;6.00;6.00;4.50
72307;PMS5003;60257;42.638;23.376;2022-08-02T00:46:57;7.00;6.75;5.00
72307;PMS5003;60257;42.638;23.376;2022-08-02T00:49:23;7.25;7.25;5.00
72307;PMS5003;60257;42.638;23.376;2022-08-02T00:51:48;12.00;12.00;7.50
72307;PMS5003;60257;42.638;23.376;2022-08-02T00:54:14;8.00;6.25;4.25
72307;PMS5003;60257;42.638;23.376;2022-08-02T00:56:39;7.50;7.50;5.00
72307;PMS5003;60257;42.638;23.376;2022-08-02T00:59:05;5.25;5.25;5.00
72307;PMS5003;60257;42.638;23.376;2022-08-02T01:01:31;8.00;8.00;4.00
72307;PMS5003;60257;42.638;23.376;2022-08-02T01:04:07;8.00;8.00;5.00
72307;PMS5003;60257;42.638;23.376;2022-08-02T01:06:34;7.00;7.00;5.00
72307;PMS5003;60257;42.638;23.376;2022-08-02T01:09:00;8.50;7.50;5.50
72307;PMS5003;60257;42.638;23.376;2022-08-02T01:11:27;7.00;7.00;4.25
72307;PMS5003;60257;42.638;23.376;2022-08-02T01:13:55;6.50;6.50;5.25
72307;PMS5003;60257;42.638;23.376;2022-08-02T01:16:24;10.50;10.00;7.00
72307;PMS5003;60257;42.638;23.376;2022-08-02T01:18:56;7.50;7.50;5.00
72307;PMS5003;60257;42.638;23.376;2022-08-02T01:21:32;6.25;6.25;5.00
72307;PMS5003;60257;42.638;23.376;2022-08-02T01:24:26;6.00;6.00;3.75
72307;PMS5003;60257;42.638;23.376;2022-08-02T01:29:54;10.25;10.25;8.00
72307;PMS5003;60257;42.638;23.376;2022-08-02T01:32:24;8.75;8.75;6.75
72307;PMS5003;60257;42.638;23.376;2022-08-02T01:34:56;13.00;11.00;7.25
72307;PMS5003;60257;42.638;23.376;2022-08-02T01:40:31;10.25;9.75;7.00
72307;PMS5003;60257;42.638;23.376;2022-08-02T01:43:00;9.75;8.50;6.50
72307;PMS5003;60257;42.638;23.376;2022-08-02T01:45:28;12.33;12.00;9.00
72307;PMS5003;60257;42.638;23.376;2022-08-02T01:47:56;12.00;12.00;7.75
72307;PMS5003;60257;42.638;23.376;2022-08-02T01:50:25;11.00;11.00;9.00
72307;PMS5003;60257;42.638;23.376;2022-08-02T01:52:56;14.33;14.00;9.00
72307;PMS5003;60257;42.638;23.376;2022-08-02T01:55:28;19.00;16.00;11.67
72307;PMS5003;60257;42.638;23.376;2022-08-02T01:58:03;13.33;13.00;9.67
72307;PMS5003;60257;42.638;23.376;2022-08-02T02:00:31;14.00;14.00;10.00
72307;PMS5003;60257;42.638;23.376;2022-08-02T02:02:59;14.00;14.00;10.00
72307;PMS5003;60257;42.638;23.376;2022-08-02T02:05:27;20.33;17.67;11.00
72307;PMS5003;60257;42.638;23.376;2022-08-02T02:07:56;17.33;17.33;12.00
72307;PMS5003;60257;42.638;23.376;2022-08-02T02:10:27;15.67;14.67;10.00
72307;PMS5003;60257;42.638;23.376;2022-08-02T02:12:55;12.33;12.33;11.00
72307;PMS5003;60257;42.638;23.376;2022-08-02T02:15:24;16.00;16.00;11.00
72307;PMS5003;60257;42.638;23.376;2022-08-02T02:17:51;16.67;16.67;13.00
72307;PMS5003;60257;42.638;23.376;2022-08-02T02:20:18;16.67;16.67;11.00
72307;PMS5003;60257;42.638;23.376;2022-08-02T02:22:45;19.67;17.00;10.67
72307;PMS5003;60257;42.638;23.376;2022-08-02T02:25:13;15.00;15.00;10.67
72307;PMS5003;60257;42.638;23.376;2022-08-02T02:27:52;11.50;11.50;9.00
72307;PMS5003;60257;42.638;23.376;2022-08-02T02:30:20;12.67;11.00;8.33
72307;PMS5003;60257;42.638;23.376;2022-08-02T02:32:49;14.67;14.00;12.00
72307;PMS5003;60257;42.638;23.376;2022-08-02T02:35:17;14.33;13.00;9.00
72307;PMS5003;60257;42.638;23.376;2022-08-02T02:37:45;11.00;9.67;8.00
72307;PMS5003;60257;42.638;23.376;2022-08-02T02:40:13;11.00;11.00;7.00
72307;PMS5003;60257;42.638;23.376;2022-08-02T02:42:40;13.00;13.00;9.00
72307;PMS5003;60257;42.638;23.376;2022-08-02T02:45:08;11.00;11.00;8.00
72307;PMS5003;60257;42.638;23.376;2022-08-02T02:47:35;10.75;10.75;7.75
72307;PMS5003;60257;42.638;23.376;2022-08-02T02:50:03;9.50;9.50;6.50
72307;PMS5003;60257;42.638;23.376;2022-08-02T02:52:29;11.00;9.33;7.00
72307;PMS5003;60257;42.638;23.376;2022-08-02T02:54:56;11.50;11.50;8.75
72307;PMS5003;60257;42.638;23.376;2022-08-02T02:57:23;13.33;12.00;8.33
72307;PMS5003;60257;42.638;23.376;2022-08-02T02:59:49;7.50;7.25;5.25
72307;PMS5003;60257;42.638;23.376;2022-08-02T03:02:17;11.25;11.25;8.00
72307;PMS5003;60257;42.638;23.376;2022-08-02T03:04:44;10.67;9.00;6.67
72307;PMS5003;60257;42.638;23.376;2022-08-02T03:07:11;9.00;9.00;7.00
72307;PMS5003;60257;42.638;23.376;2022-08-02T03:09:37;11.00;10.67;8.00
72307;PMS5003;60257;42.638;23.376;2022-08-02T03:12:02;10.25;10.25;8.00
72307;PMS5003;60257;42.638;23.376;2022-08-02T03:14:28;10.50;10.50;7.75
72307;PMS5003;60257;42.638;23.376;2022-08-02T03:16:54;11.00;11.00;9.00
72307;PMS5003;60257;42.638;23.376;2022-08-02T03:19:20;10.67;10.33;8.67
72307;PMS5003;60257;42.638;23.376;2022-08-02T03:21:47;8.25;8.25;6.00
72307;PMS5003;60257;42.638;23.376;2022-08-02T03:24:13;9.67;9.67;7.67
72307;PMS5003;60257;42.638;23.376;2022-08-02T03:26:39;11.33;9.00;7.33
72307;PMS5003;60257;42.638;23.376;2022-08-02T03:29:05;11.00;11.00;8.00
72307;PMS5003;60257;42.638;23.376;2022-08-02T03:31:31;8.00;8.00;5.67
72307;PMS5003;60257;42.638;23.376;2022-08-02T03:33:57;10.33;10.33;6.67
72307;PMS5003;60257;42.638;23.376;2022-08-02T03:36:25;10.33;9.33;8.00
72307;PMS5003;60257;42.638;23.376;2022-08-02T03:38:53;9.75;9.75;7.50
72307;PMS5003;60257;42.638;23.376;2022-08-02T03:41:19;12.00;11.33;9.00
72307;PMS5003;60257;42.638;23.376;2022-08-02T03:43:47;11.33;11.33;9.00
72307;PMS5003;60257;42.638;23.376;2022-08-02T03:46:16;12.33;12.00;9.00
72307;PMS5003;60257;42.638;23.376;2022-08-02T03:48:43;9.00;9.00;6.33
72307;PMS5003;60257;42.638;23.376;2022-08-02T03:51:10;13.67;11.00;8.00
72307;PMS5003;60257;42.638;23.376;2022-08-02T03:53:37;9.25;9.25;7.50
72307;PMS5003;60257;42.638;23.376;2022-08-02T03:56:03;11.67;11.67;8.33
72307;PMS5003;60257;42.638;23.376;2022-08-02T03:58:30;12.33;12.00;9.00
72307;PMS5003;60257;42.638;23.376;2022-08-02T04:00:56;12.33;11.33;8.00
72307;PMS5003;60257;42.638;23.376;2022-08-02T04:03:22;13.00;12.67;9.00
72307;PMS5003;60257;42.638;23.376;2022-08-02T04:05:48;14.00;14.00;10.00
72307;PMS5003;60257;42.638;23.376;2022-08-02T04:08:13;10.75;10.25;6.75
72307;PMS5003;60257;42.638;23.376;2022-08-02T04:10:39;11.25;10.50;7.50
72307;PMS5003;60257;42.638;23.376;2022-08-02T04:13:25;14.00;14.00;10.00
72307;PMS5003;60257;42.638;23.376;2022-08-02T04:15:53;11.67;11.67;7.33
72307;PMS5003;60257;42.638;23.376;2022-08-02T04:18:23;18.00;15.33;10.00
72307;PMS5003;60257;42.638;23.376;2022-08-02T04:20:54;12.00;11.00;7.67
72307;PMS5003;60257;42.638;23.376;2022-08-02T04:23:23;11.67;11.67;8.67
72307;PMS5003;60257;42.638;23.376;2022-08-02T04:25:51;19.33;18.00;14.33
72307;PMS5003;60257;42.638;23.376;2022-08-02T04:28:18;12.33;12.33;9.67
72307;PMS5003;60257;42.638;23.376;2022-08-02T04:30:48;13.67;13.67;10.00
72307;PMS5003;60257;42.638;23.376;2022-08-02T04:33:15;12.67;12.67;9.00
72307;PMS5003;60257;42.638;23.376;2022-08-02T04:35:41;14.00;14.00;9.00
72307;PMS5003;60257;42.638;23.376;2022-08-02T04:38:08;14.67;13.67;9.67
72307;PMS5003;60257;42.638;23.376;2022-08-02T04:40:34;11.75;11.75;8.50
72307;PMS5003;60257;42.638;23.376;2022-08-02T04:43:00;20.00;18.00;13.00
72307;PMS5003;60257;42.638;23.376;2022-08-02T04:45:25;15.00;15.00;10.67
72307;PMS5003;60257;42.638;23.376;2022-08-02T04:47:53;13.33;13.00;10.00
72307;PMS5003;60257;42.638;23.376;2022-08-02T04:50:18;18.33;14.67;9.00
72307;PMS5003;60257;42.638;23.376;2022-08-02T04:52:45;13.25;12.50;10.00
72307;PMS5003;60257;42.638;23.376;2022-08-02T04:55:10;14.00;14.00;10.25
72307;PMS5003;60257;42.638;23.376;2022-08-02T04:57:36;18.00;17.00;13.00
72307;PMS5003;60257;42.638;23.376;2022-08-02T05:00:19;14.25;14.25;10.50
72307;PMS5003;60257;42.638;23.376;2022-08-02T05:02:46;15.00;15.00;10.67
72307;PMS5003;60257;42.638;23.376;2022-08-02T05:05:12;18.33;16.00;11.00
72307;PMS5003;60257;42.638;23.376;2022-08-02T05:07:38;9.00;9.00;6.00
72307;PMS5003;60257;42.638;23.376;2022-08-02T05:10:03;18.00;15.33;10.00
72307;PMS5003;60257;42.638;23.376;2022-08-02T05:12:29;14.33;13.00;11.00
72307;PMS5003;60257;42.638;23.376;2022-08-02T05:14:55;17.00;16.00;11.33
72307;PMS5003;60257;42.638;23.376;2022-08-02T05:17:21;17.00;16.00;11.75
72307;PMS5003;60257;42.638;23.376;2022-08-02T05:19:46;11.25;11.25;10.25
72307;PMS5003;60257;42.638;23.376;2022-08-02T05:22:12;21.33;20.33;13.00
72307;PMS5003;60257;42.638;23.376;2022-08-02T05:24:37;16.75;15.00;11.75
72307;PMS5003;60257;42.638;23.376;2022-08-02T05:27:03;16.50;15.25;10.75
72307;PMS5003;60257;42.638;23.376;2022-08-02T05:29:28;16.00;15.00;10.33
72307;PMS5003;60257;42.638;23.376;2022-08-02T05:31:54;18.00;16.50;13.00
72307;PMS5003;60257;42.638;23.376;2022-08-02T05:34:19;13.50;12.50;9.50
72307;PMS5003;60257;42.638;23.376;2022-08-02T05:36:44;15.50;15.50;10.75
72307;PMS5003;60257;42.638;23.376;2022-08-02T05:39:10;17.75;15.75;11.25
72307;PMS5003;60257;42.638;23.376;2022-08-02T05:41:35;17.50;17.50;13.00
72307;PMS5003;60257;42.638;23.376;2022-08-02T05:44:02;19.00;15.75;10.00
72307;PMS5003;60257;42.638;23.376;2022-08-02T05:46:28;16.00;16.00;11.25
72307;PMS5003;60257;42.638;23.376;2022-08-02T05:48:53;18.25;17.50;11.25
72307;PMS5003;60257;42.638;23.376;2022-08-02T05:51:21;17.00;17.00;12.25
72307;PMS5003;60257;42.638;23.376;2022-08-02T05:56:24;17.25;15.75;10.75
72307;PMS5003;60257;42.638;23.376;2022-08-02T05:59:11;21.00;16.75;10.50
72307;PMS5003;60257;42.638;23.376;2022-08-02T06:01:46;16.25;15.75;11.50
72307;PMS5003;60257;42.638;23.376;2022-08-02T06:04:15;15.50;15.25;11.25
72307;PMS5003;60257;42.638;23.376;2022-08-02T06:06:49;19.00;15.50;9.75
72307;PMS5003;60257;42.638;23.376;2022-08-02T06:09:19;19.25;19.25;12.75
72307;PMS5003;60257;42.638;23.376;2022-08-02T06:11:49;17.00;16.75;11.50
72307;PMS5003;60257;42.638;23.376;2022-08-02T06:14:16;14.00;14.00;11.25
72307;PMS5003;60257;42.638;23.376;2022-08-02T06:16:42;11.00;11.00;8.25
72307;PMS5003;60257;42.638;23.376;2022-08-02T06:19:10;10.00;10.00;7.25
72307;PMS5003;60257;42.638;23.376;2022-08-02T06:21:38;8.00;8.00;6.50
72307;PMS5003;60257;42.638;23.376;2022-08-02T06:24:06;8.25;8.25;7.00
72307;PMS5003;60257;42.638;23.376;2022-08-02T06:26:33;13.25;12.00;8.50
72307;PMS5003;60257;42.638;23.376;2022-08-02T06:29:00;9.00;9.00;7.75
72307;PMS5003;60257;42.638;23.376;2022-08-02T06:31:26;9.25;9.25;7.25
72307;PMS5003;60257;42.638;23.376;2022-08-02T06:33:52;8.75;8.75;6.00
72307;PMS5003;60257;42.638;23.376;2022-08-02T06:36:21;12.25;11.00;8.00
72307;PMS5003;60257;42.638;23.376;2022-08-02T06:38:54;10.00;10.00;7.50
72307;PMS5003;60257;42.638;23.376;2022-08-02T06:41:25;8.25;7.00;6.00
72307;PMS5003;60257;42.638;23.376;2022-08-02T06:43:59;9.75;9.75;7.00
72307;PMS5003;60257;42.638;23.376;2022-08-02T06:46:26;7.00;7.00;5.75
72307;PMS5003;60257;42.638;23.376;2022-08-02T06:48:52;8.75;8.75;6.00
72307;PMS5003;60257;42.638;23.376;2022-08-02T06:51:18;7.00;7.00;6.00
72307;PMS5003;60257;42.638;23.376;2022-08-02T06:53:44;10.75;10.25;7.00
72307;PMS5003;60257;42.638;23.376;2022-08-02T06:56:10;10.00;10.00;7.00
72307;PMS5003;60257;42.638;23.376;2022-08-02T06:58:36;11.25;11.25;8.00
72307;PMS5003;60257;42.638;23.376;2022-08-02T07:01:01;8.25;8.25;7.00
72307;PMS5003;60257;42.638;23.376;2022-08-02T07:03:31;9.25;9.25;6.00
72307;PMS5003;60257;42.638;23.376;2022-08-02T07:06:00;7.50;7.50;6.00
72307;PMS5003;60257;42.638;23.376;2022-08-02T07:08:26;9.25;8.50;5.75
72307;PMS5003;60257;42.638;23.376;2022-08-02T07:10:57;4.75;4.75;4.25
72307;PMS5003;60257;42.638;23.376;2022-08-02T07:13:25;4.75;4.75;3.75
72307;PMS5003;60257;42.638;23.376;2022-08-02T07:15:51;9.00;9.00;5.50
72307;PMS5003;60257;42.638;23.376;2022-08-02T07:18:16;9.25;8.00;6.50
72307;PMS5003;60257;42.638;23.376;2022-08-02T07:20:42;9.00;9.00;6.25
72307;PMS5003;60257;42.638;23.376;2022-08-02T07:23:08;9.00;9.00;5.75
72307;PMS5003;60257;42.638;23.376;2022-08-02T07:25:33;8.75;8.75;6.25
72307;PMS5003;60257;42.638;23.376;2022-08-02T07:27:59;10.00;9.00;7.00
72307;PMS5003;60257;42.638;23.376;2022-08-02T07:30:24;8.75;8.75;6.00
72307;PMS5003;60257;42.638;23.376;2022-08-02T07:32:50;7.75;7.75;4.75
72307;PMS5003;60257;42.638;23.376;2022-08-02T07:35:15;8.00;8.00;6.50
72307;PMS5003;60257;42.638;23.376;2022-08-02T07:37:41;8.25;8.25;5.00
72307;PMS5003;60257;42.638;23.376;2022-08-02T07:40:09;5.75;5.50;5.00
72307;PMS5003;60257;42.638;23.376;2022-08-02T07:42:36;9.25;8.00;6.00
72307;PMS5003;60257;42.638;23.376;2022-08-02T07:45:02;9.25;8.75;6.00
72307;PMS5003;60257;42.638;23.376;2022-08-02T07:47:27;17.00;16.50;11.25
72307;PMS5003;60257;42.638;23.376;2022-08-02T07:49:53;11.00;10.25;7.00
72307;PMS5003;60257;42.638;23.376;2022-08-02T07:52:18;7.00;7.00;5.25
72307;PMS5003;60257;42.638;23.376;2022-08-02T07:54:44;6.00;6.00;4.00
72307;PMS5003;60257;42.638;23.376;2022-08-02T07:57:10;6.25;5.75;4.00
72307;PMS5003;60257;42.638;23.376;2022-08-02T07:59:36;7.00;7.00;4.75
72307;PMS5003;60257;42.638;23.376;2022-08-02T08:02:02;5.25;4.50;3.00
72307;PMS5003;60257;42.638;23.376;2022-08-02T08:04:28;7.75;7.75;6.50
72307;PMS5003;60257;42.638;23.376;2022-08-02T08:06:54;9.75;8.25;6.50
72307;PMS5003;60257;42.638;23.376;2022-08-02T08:09:20;7.50;6.00;4.00
72307;PMS5003;60257;42.638;23.376;2022-08-02T08:11:45;9.75;9.75;6.25
72307;PMS5003;60257;42.638;23.376;2022-08-02T08:14:10;6.75;6.75;5.00
72307;PMS5003;60257;42.638;23.376;2022-08-02T08:16:36;6.00;6.00;4.50
72307;PMS5003;60257;42.638;23.376;2022-08-02T08:19:01;8.00;7.00;5.00
72307;PMS5003;60257;42.638;23.376;2022-08-02T08:21:28;8.00;8.00;5.00
72307;PMS5003;60257;42.638;23.376;2022-08-02T08:23:54;8.00;8.00;6.00
72307;PMS5003;60257;42.638;23.376;2022-08-02T08:26:20;6.25;6.25;5.00
72307;PMS5003;60257;42.638;23.376;2022-08-02T08:28:46;7.75;7.75;5.00
72307;PMS5003;60257;42.638;23.376;2022-08-02T08:31:11;6.75;6.75;4.75
72307;PMS5003;60257;42.638;23.376;2022-08-02T08:33:37;6.50;6.50;5.25
72307;PMS5003;60257;42.638;23.376;2022-08-02T08:36:02;8.00;8.00;5.50
72307;PMS5003;60257;42.638;23.376;2022-08-02T08:38:28;8.75;8.75;7.00
72307;PMS5003;60257;42.638;23.376;2022-08-02T08:40:54;7.75;7.75;5.00
72307;PMS5003;60257;42.638;23.376;2022-08-02T08:43:19;8.00;8.00;6.00
72307;PMS5003;60257;42.638;23.376;2022-08-02T08:45:46;8.50;7.75;5.00
72307;PMS5003;60257;42.638;23.376;2022-08-02T08:48:13;6.00;6.00;5.00
72307;PMS5003;60257;42.638;23.376;2022-08-02T08:51:22;18.25;18.25;11.75
72307;PMS5003;60257;42.638;23.376;2022-08-02T08:53:36;9.00;9.00;6.00
72307;PMS5003;60257;42.638;23.376;2022-08-02T08:56:04;6.00;6.00;5.00
72307;PMS5003;60257;42.638;23.376;2022-08-02T08:58:30;17.00;17.00;11.50
72307;PMS5003;60257;42.638;23.376;2022-08-02T09:00:55;7.00;7.00;5.50
72307;PMS5003;60257;42.638;23.376;2022-08-02T09:03:21;6.00;6.00;4.00
72307;PMS5003;60257;42.638;23.376;2022-08-02T09:05:46;6.75;6.00;4.00
72307;PMS5003;60257;42.638;23.376;2022-08-02T09:08:12;8.00;8.00;5.00
72307;PMS5003;60257;42.638;23.376;2022-08-02T09:10:45;6.00;6.00;4.00
72307;PMS5003;60257;42.638;23.376;2022-08-02T09:13:16;4.00;4.00;3.00
72307;PMS5003;60257;42.638;23.376;2022-08-02T09:16:03;8.00;8.00;5.00
72307;PMS5003;60257;42.638;23.376;2022-08-02T09:21:02;8.00;6.75;5.00
72307;PMS5003;60257;42.638;23.376;2022-08-02T09:23:33;6.75;6.75;5.00
72307;PMS5003;60257;42.638;23.376;2022-08-02T09:26:00;5.00;5.00;2.75
72307;PMS5003;60257;42.638;23.376;2022-08-02T09:28:28;7.50;7.50;5.75
72307;PMS5003;60257;42.638;23.376;2022-08-02T09:30:55;5.00;5.00;3.25
72307;PMS5003;60257;42.638;23.376;2022-08-02T09:33:26;6.00;6.00;4.00
72307;PMS5003;60257;42.638;23.376;2022-08-02T09:36:14;5.00;5.00;3.00
72307;PMS5003;60257;42.638;23.376;2022-08-02T09:38:39;7.00;7.00;5.00
72307;PMS5003;60257;42.638;23.376;2022-08-02T09:41:19;5.50;5.50;3.50
72307;PMS5003;60257;42.638;23.376;2022-08-02T09:43:46;3.25;3.25;2.00
72307;PMS5003;60257;42.638;23.376;2022-08-02T09:46:16;5.25;5.25;4.75
72307;PMS5003;60257;42.638;23.376;2022-08-02T09:48:50;7.25;5.75;3.75
72307;PMS5003;60257;42.638;23.376;2022-08-02T09:51:18;6.50;6.00;4.00
72307;PMS5003;60257;42.638;23.376;2022-08-02T09:53:48;4.50;4.50;4.00
72307;PMS5003;60257;42.638;23.376;2022-08-02T09:56:16;4.50;4.50;3.00
72307;PMS5003;60257;42.638;23.376;2022-08-02T09:58:42;5.25;5.00;3.25
72307;PMS5003;60257;42.638;23.376;2022-08-02T10:01:08;5.00;5.00;4.00
72307;PMS5003;60257;42.638;23.376;2022-08-02T10:03:34;4.50;4.50;2.75
72307;PMS5003;60257;42.638;23.376;2022-08-02T10:06:00;4.50;3.75;2.50
72307;PMS5003;60257;42.638;23.376;2022-08-02T10:08:27;3.00;3.00;3.00
72307;PMS5003;60257;42.638;23.376;2022-08-02T10:10:53;4.25;4.25;3.25
72307;PMS5003;60257;42.638;23.376;2022-08-02T10:13:29;6.00;5.00;3.50
72307;PMS5003;60257;42.638;23.376;2022-08-02T10:15:56;5.75;5.75;4.00
72307;PMS5003;60257;42.638;23.376;2022-08-02T10:18:22;4.00;4.00;2.75
72307;PMS5003;60257;42.638;23.376;2022-08-02T10:20:48;5.00;5.00;3.00
72307;PMS5003;60257;42.638;23.376;2022-08-02T10:23:15;4.50;4.00;3.00
72307;PMS5003;60257;42.638;23.376;2022-08-02T10:25:43;4.75;4.75;3.25
72307;PMS5003;60257;42.638;23.376;2022-08-02T10:28:12;5.75;5.75;5.00
72307;PMS5003;60257;42.638;23.376;2022-08-02T10:30:41;5.50;5.50;4.00
72307;PMS5003;60257;42.638;23.376;2022-08-02T10:33:09;6.75;6.00;4.00
72307;PMS5003;60257;42.638;23.376;2022-08-02T10:35:37;6.50;6.50;5.00
72307;PMS5003;60257;42.638;23.376;2022-08-02T10:38:05;6.75;6.00;4.00
72307;PMS5003;60257;42.638;23.376;2022-08-02T10:40:44;5.75;5.75;3.00
72307;PMS5003;60257;42.638;23.376;2022-08-02T10:43:10;5.75;4.25;3.25
72307;PMS5003;60257;42.638;23.376;2022-08-02T10:45:37;7.00;7.00;5.00
72307;PMS5003;60257;42.638;23.376;2022-08-02T10:48:06;4.75;4.75;3.00
72307;PMS5003;60257;42.638;23.376;2022-08-02T10:55:57;6.00;6.00;4.00
72307;PMS5003;60257;42.638;23.376;2022-08-02T10:58:24;4.25;4.25;3.25
72307;PMS5003;60257;42.638;23.376;2022-08-02T11:00:56;4.75;4.00;3.25
72307;PMS5003;60257;42.638;23.376;2022-08-02T11:08:31;6.75;6.75;5.00
72307;PMS5003;60257;42.638;23.376;2022-08-02T11:19:22;6.00;6.00;5.00
72307;PMS5003;60257;42.638;23.376;2022-08-02T11:22:07;5.25;5.25;4.00
72307;PMS5003;60257;42.638;23.376;2022-08-02T11:24:39;3.25;3.25;2.25
72307;PMS5003;60257;42.638;23.376;2022-08-02T11:27:15;5.00;5.00;4.00
72307;PMS5003;60257;42.638;23.376;2022-08-02T11:29:42;4.75;4.75;3.50
72307;PMS5003;60257;42.638;23.376;2022-08-02T11:32:22;5.75;5.75;4.00
72307;PMS5003;60257;42.638;23.376;2022-08-02T11:34:49;4.50;4.50;3.00
72307;PMS5003;60257;42.638;23.376;2022-08-02T11:37:28;5.25;5.25;4.00
72307;PMS5003;60257;42.638;23.376;2022-08-02T11:39:56;5.00;5.00;4.00
72307;PMS5003;60257;42.638;23.376;2022-08-02T11:42:29;3.50;2.75;2.50
72307;PMS5003;60257;42.638;23.376;2022-08-02T11:44:59;3.75;3.75;2.25
72307;PMS5003;60257;42.638;23.376;2022-08-02T11:47:24;5.00;5.00;3.25
72307;PMS5003;60257;42.638;23.376;2022-08-02T11:49:50;5.00;5.00;3.00
72307;PMS5003;60257;42.638;23.376;2022-08-02T11:52:15;4.75;4.75;3.00
72307;PMS5003;60257;42.638;23.376;2022-08-02T11:54:41;6.00;6.00;5.00
72307;PMS5003;60257;42.638;23.376;2022-08-02T11:57:11;3.00;3.00;2.25
72307;PMS5003;60257;42.638;23.376;2022-08-02T11:59:44;3.00;3.00;2.00
72307;PMS5003;60257;42.638;23.376;2022-08-02T12:02:10;4.75;4.75;3.25
72307;PMS5003;60257;42.638;23.376;2022-08-02T12:04:36;5.00;5.00;3.00
72307;PMS5003;60257;42.638;23.376;2022-08-02T12:07:04;4.00;4.00;3.00
72307;PMS5003;60257;42.638;23.376;2022-08-02T12:09:30;4.25;4.25;3.25
72307;PMS5003;60257;42.638;23.376;2022-08-02T12:11:58;2.50;2.50;1.50
72307;PMS5003;60257;42.638;23.376;2022-08-02T12:14:25;3.00;3.00;2.00
72307;PMS5003;60257;42.638;23.376;2022-08-02T12:16:52;4.25;4.25;3.75
72307;PMS5003;60257;42.638;23.376;2022-08-02T12:19:36;3.50;3.50;2.75
72307;PMS5003;60257;42.638;23.376;2022-08-02T12:24:41;4.75;4.75;4.00
72307;PMS5003;60257;42.638;23.376;2022-08-02T12:27:09;4.25;4.25;3.50
72307;PMS5003;60257;42.638;23.376;2022-08-02T12:29:56;4.50;4.50;3.00
72307;PMS5003;60257;42.638;23.376;2022-08-02T12:32:24;4.00;4.00;3.00
72307;PMS5003;60257;42.638;23.376;2022-08-02T12:35:10;4.75;4.75;4.00
72307;PMS5003;60257;42.638;23.376;2022-08-02T12:37:41;5.50;5.50;4.00
72307;PMS5003;60257;42.638;23.376;2022-08-02T12:40:21;4.75;4.75;3.50
72307;PMS5003;60257;42.638;23.376;2022-08-02T12:42:57;4.25;4.25;2.75
72307;PMS5003;60257;42.638;23.376;2022-08-02T12:45:23;4.00;4.00;3.00
72307;PMS5003;60257;42.638;23.376;2022-08-02T12:47:52;3.75;3.75;3.25
72307;PMS5003;60257;42.638;23.376;2022-08-02T12:50:23;4.25;4.25;3.00
72307;PMS5003;60257;42.638;23.376;2022-08-02T12:55:29;5.00;4.25;3.25
72307;PMS5003;60257;42.638;23.376;2022-08-02T12:57:57;4.75;4.75;3.00
72307;PMS5003;60257;42.638;23.376;2022-08-02T13:00:28;3.00;3.00;2.00
72307;PMS5003;60257;42.638;23.376;2022-08-02T13:02:56;3.75;3.75;2.75
72307;PMS5003;60257;42.638;23.376;2022-08-02T13:05:22;5.00;5.00;3.25
72307;PMS5003;60257;42.638;23.376;2022-08-02T13:07:49;3.75;3.75;3.00
72307;PMS5003;60257;42.638;23.376;2022-08-02T13:10:15;4.25;4.25;3.00
72307;PMS5003;60257;42.638;23.376;2022-08-02T13:12:40;4.50;4.50;3.75
72307;PMS5003;60257;42.638;23.376;2022-08-02T13:15:06;4.50;4.50;4.00
72307;PMS5003;60257;42.638;23.376;2022-08-02T13:17:33;4.50;4.50;3.25
72307;PMS5003;60257;42.638;23.376;2022-08-02T13:19:59;6.00;5.75;3.25
72307;PMS5003;60257;42.638;23.376;2022-08-02T13:22:24;4.75;4.75;3.00
72307;PMS5003;60257;42.638;23.376;2022-08-02T13:24:50;4.00;4.00;3.00
72307;PMS5003;60257;42.638;23.376;2022-08-02T13:27:16;4.00;4.00;3.00
72307;PMS5003;60257;42.638;23.376;2022-08-02T13:29:42;4.75;4.75;3.50
72307;PMS5003;60257;42.638;23.376;2022-08-02T13:32:08;4.75;4.00;3.00
72307;PMS5003;60257;42.638;23.376;2022-08-02T13:34:33;2.75;2.75;1.50
72307;PMS5003;60257;42.638;23.376;2022-08-02T13:36:59;3.00;3.00;2.00
72307;PMS5003;60257;42.638;23.376;2022-08-02T13:39:25;5.25;4.50;3.00
72307;PMS5003;60257;42.638;23.376;2022-08-02T13:41:51;3.00;3.00;3.00
72307;PMS5003;60257;42.638;23.376;2022-08-02T13:44:16;3.50;3.50;2.00
72307;PMS5003;60257;42.638;23.376;2022-08-02T13:46:42;3.25;3.25;3.00
72307;PMS5003;60257;42.638;23.376;2022-08-02T13:49:08;4.00;4.00;2.25
72307;PMS5003;60257;42.638;23.376;2022-08-02T13:51:34;5.00;5.00;3.75
72307;PMS5003;60257;42.638;23.376;2022-08-02T13:54:00;5.50;4.00;2.00
72307;PMS5003;60257;42.638;23.376;2022-08-02T13:56:26;4.00;4.00;3.00
72307;PMS5003;60257;42.638;23.376;2022-08-02T13:58:52;4.00;4.00;3.00
72307;PMS5003;60257;42.638;23.376;2022-08-02T14:01:17;3.50;3.50;2.50
72307;PMS5003;60257;42.638;23.376;2022-08-02T14:03:43;1.75;1.75;1.00
72307;PMS5003;60257;42.638;23.376;2022-08-02T14:06:09;3.50;3.50;2.25
72307;PMS5003;60257;42.638;23.376;2022-08-02T14:08:35;3.25;3.00;2.00
72307;PMS5003;60257;42.638;23.376;2022-08-02T14:11:00;3.00;3.00;2.00
72307;PMS5003;60257;42.638;23.376;2022-08-02T14:13:26;4.00;4.00;3.00
72307;PMS5003;60257;42.638;23.376;2022-08-02T14:15:51;4.00;4.00;3.00
72307;PMS5003;60257;42.638;23.376;2022-08-02T14:18:17;3.50;3.50;3.00
72307;PMS5003;60257;42.638;23.376;2022-08-02T14:20:44;4.00;4.00;2.50
72307;PMS5003;60257;42.638;23.376;2022-08-02T14:23:10;3.75;3.75;2.50
72307;PMS5003;60257;42.638;23.376;2022-08-02T14:25:35;3.00;3.00;2.75
72307;PMS5003;60257;42.638;23.376;2022-08-02T14:28:02;3.00;3.00;2.00
72307;PMS5003;60257;42.638;23.376;2022-08-02T14:30:28;5.00;5.00;4.00
72307;PMS5003;60257;42.638;23.376;2022-08-02T14:32:54;5.25;5.00;4.00
72307;PMS5003;60257;42.638;23.376;2022-08-02T14:35:19;5.25;5.25;3.50
72307;PMS5003;60257;42.638;23.376;2022-08-02T14:37:45;5.00;5.00;3.50